首页
METAR-TAF:

METAR-TAF

机场 :

雅蒲島國際機場

雅蒲島, 密克罗尼西亚群岛

纬度: 09-29N, 经度: 138-05E, 海拔: 28米

当前天气观测

该预报发布于44分钟前的13:53 UTC
风速8节,风向北转东北
温度 27°C
湿度 74%
气压 1013 hPa
能見度: 19.3公里
少量云层高于1600英尺
多云层高于30000英尺

METAR: PTYA 191353Z 02008KT 12SM FEW016 BKN300 27/22 A2992 RMK SLP132 T02670222

时间: 00:37 (14:37 UTC)

预报

该预报发布于3小时和2分钟前的11:35 UTC
预报有效从19日的 12点(UTC)到 20日的 12点(UTC)
风速11节,风向北转东北
能見度: 10公里
少量云层高于1800英尺
散云层高于5000英尺

TAF: PTYA 191135Z 1912/2012 03011KT P6SM FEW018 SCT050

超过4000个机场的气象观测和天气预报(METAR&TAF报告)。

可查询的气象台以黄色和红色小点在地图上表示。

将鼠标移到小点上方,可查看气象台名称。

然后点击查看天气观测和预报。

如需切换地图:点击带黑十字的绿色按钮放大地图;点击带横线的绿色按钮缩小地图;或者点击绿色箭头查看邻近地区的地图。


METAR-TAF: